Sun, 03 Jul 2022 22:27:08 CEST | login

Information for RPM lzo-2.06-8.el7.x86_64.rpm

ID698
Namelzo
Version2.06
Release8.el7
Epoch
Archx86_64
SummaryData compression library with very fast (de)compression
DescriptionLZO is a portable lossless data compression library written in ANSI C. It offers pretty fast compression and very fast decompression. Decompression requires no memory. In addition there are slower compression levels achieving a quite competitive compression ratio while still decompressing at this very high speed.
Build Time2015-11-20 07:26:41 GMT
Size59,628
fb57116a5f1f0e494abb8db7e7bfb249
LicenseGPLv2+
Provides
liblzo2.so.2()(64bit)
lzo = 2.06-8.el7
lzo(x86-64) = 2.06-8.el7
Obsoletes No Obsoletes
Conflicts No Conflicts
Requires
/sbin/ldconfig
/sbin/ldconfig
libc.so.6()(64bit)
libc.so.6(GLIBC_2.14)(64bit)
libc.so.6(GLIBC_2.2.5)(64bit)
libc.so.6(GLIBC_2.4)(64bit)
rpmlib(CompressedFileNames) <= 3.0.4-1
rpmlib(FileDigests) <= 4.6.0-1
rpmlib(PayloadFilesHavePrefix) <= 4.0-1
rpmlib(PayloadIsXz) <= 5.2-1
rtld(GNU_HASH)
Recommends No Recommends
Suggests No Suggests
Supplements No Supplements
Enhances No Enhances
Files
1 through 7 of 7
Name ascending sort Size
/usr/lib64/liblzo2.so.216
/usr/lib64/liblzo2.so.2.0.0135,112
/usr/share/doc/lzo-2.064,096
/usr/share/doc/lzo-2.06/AUTHORS112
/usr/share/doc/lzo-2.06/COPYING18,092
/usr/share/doc/lzo-2.06/NEWS11,354
/usr/share/doc/lzo-2.06/THANKS690
Component of
Page:
1 through 50 of 606 >>>
Buildroot descending sort Created State
v8.2-testing-3705-3471 2022-06-23 19:41:08 expired
v8.2-testing-3693-3462 2022-06-14 11:28:31 expired
v8.2-testing-3691-3440 2022-06-10 12:29:31 expired
v8.2-ipv6-3689-3428 2022-05-25 09:44:12 expired
v8.2-ipv6-3687-3428 2022-05-25 09:38:37 expired
v8.2-ipv6-3685-3411 2022-05-25 09:29:46 expired
v8.2-ipv6-3683-3411 2022-05-25 09:24:57 expired
v8.2-ipv6-3666-3405 2022-05-24 09:39:26 expired
v8.2-testing-3662-3390 2022-05-20 11:27:33 expired
v8.2-ipv6-3658-3385 2022-05-18 16:02:32 expired
v8.2-ipv6-3656-3385 2022-05-18 12:19:52 expired
v8.2-ipv6-3654-3385 2022-05-18 12:15:35 expired
v8.2-ipv6-3652-3385 2022-05-18 12:10:46 expired
v8.2-ipv6-3650-3383 2022-05-17 15:46:55 expired
v8.2-ipv6-3648-3383 2022-05-17 15:41:06 expired
v8.2-ipv6-3642-3377 2022-05-17 10:35:07 expired
v8.2-ipv6-3640-3374 2022-05-17 09:47:30 expired
v8.2-ipv6-3638-3374 2022-05-17 09:41:42 expired
v8.2-ipv6-3636-3374 2022-05-17 09:35:24 expired
v8.2-ipv6-3603-3358 2022-05-12 12:42:49 expired
v8.2-ipv6-3601-3358 2022-05-12 12:31:53 expired
v8.2-ipv6-3595-3355 2022-05-12 12:06:42 expired
v8.2-ipv6-3591-3355 2022-05-12 12:01:19 expired
v8.2-ipv6-3587-3345 2022-05-12 11:53:10 expired
v8.2-ipv6-3585-3345 2022-05-12 11:46:59 expired
v8.2-ipv6-3579-3341 2022-05-12 11:33:14 expired
v8.2-ipv6-3577-3341 2022-05-12 11:29:55 expired
v8.2-ipv6-3575-3339 2022-05-12 11:21:32 expired
v8.2-ipv6-3573-3339 2022-05-12 11:17:58 expired
v8.2-ipv6-3567-3333 2022-05-12 11:02:13 expired
v8.2-ipv6-3565-3333 2022-05-12 10:58:39 expired
v8.2-ipv6-3563-3333 2022-05-12 10:53:20 expired
v8.2-ipv6-3561-3333 2022-05-12 10:49:16 expired
v8.2-testing-3547-3318 2022-05-11 18:47:56 expired
v8.2-testing-3545-3318 2022-05-11 17:58:02 expired
v8.2-testing-3532-3294 2022-04-14 19:52:26 expired
v8.2-testing-3530-3294 2022-04-14 16:40:10 expired
v8.2-testing-3528-3275 2022-04-08 17:51:22 expired
v8.2-testing-3526-3275 2022-04-08 17:38:34 expired
v8.2-testing-3524-3269 2022-04-05 17:25:50 expired
v8.2-testing-3514-3224 2022-03-09 12:01:47 expired
v8.2-runx-3512-3204 2022-03-03 11:52:14 expired
v8.2-runx-3510-3204 2022-03-03 10:42:54 expired
v8.2-testing-3508-3202 2022-03-01 10:33:25 expired
v8.2-testing-3506-3202 2022-03-01 10:20:07 expired
v8.2-staging-3486-3152 2022-02-11 17:39:32 expired
v8.2-staging-3484-3143 2022-02-11 17:16:10 expired
v8.2-staging-3480-3141 2022-02-11 09:11:45 expired
v8.2-testing-3478-3136 2022-02-11 09:08:14 expired
v8.2-testing-3472-3102 2022-02-09 12:06:55 expired